Capivara, Argentina
Current Conditions -  °F | °C
As of 4:00 AM on Tuesday 21 Oct 2014 (Local Time) from SAAR Reporting Station
Clear Clear  
Wind Chill: 64°   Ceiling: Unl
Heat Index: 64°   Visibility: 6mi
Dew Point: 55°   Wind: 6mph
Humidity: 73%   Direction: 20°NNE
Pressure: 30.03"   Gusts: NA
Location:  30.56°S, 61.3°W
Report Text: SAAR 210700Z 02005KT CAVOK 18/13 Q1017
Loading
Personal Weather Stations






























Interactive Weather Map
Tropical Storm Tracking
New forecast layout! Learn more

10-Day Weather Forecast

Advertisements
Track Severe Weather on mobile